sensor_id;sensor_type;location;lat;lon;timestamp;pressure;altitude;pressure_sealevel;temperature;humidity
35676;BME280;21790;42.668;23.298;2023-01-10T00:01:37;93922.75;;;11.12;47.17
35676;BME280;21790;42.668;23.298;2023-01-10T00:04:03;93942.25;;;10.88;47.96
35676;BME280;21790;42.668;23.298;2023-01-10T00:06:29;93922.78;;;10.98;47.74
35676;BME280;21790;42.668;23.298;2023-01-10T00:08:55;93916.56;;;11.03;47.45
35676;BME280;21790;42.668;23.298;2023-01-10T00:11:23;93928.88;;;11.02;47.95
35676;BME280;21790;42.668;23.298;2023-01-10T00:14:07;93927.16;;;10.69;48.49
35676;BME280;21790;42.668;23.298;2023-01-10T00:16:33;93922.13;;;10.68;48.29
35676;BME280;21790;42.668;23.298;2023-01-10T00:18:58;93920.16;;;10.88;47.77
35676;BME280;21790;42.668;23.298;2023-01-10T00:21:24;93906.00;;;11.01;47.52
35676;BME280;21790;42.668;23.298;2023-01-10T00:23:49;93918.09;;;11.04;47.37
35676;BME280;21790;42.668;23.298;2023-01-10T00:26:15;93900.38;;;11.36;46.54
35676;BME280;21790;42.668;23.298;2023-01-10T00:28:40;93924.09;;;11.43;46.28
35676;BME280;21790;42.668;23.298;2023-01-10T00:31:08;93903.34;;;11.53;46.04
35676;BME280;21790;42.668;23.298;2023-01-10T00:33:37;93929.34;;;11.20;46.82
35676;BME280;21790;42.668;23.298;2023-01-10T00:36:04;93905.38;;;11.32;46.73
35676;BME280;21790;42.668;23.298;2023-01-10T00:41:45;93882.50;;;11.11;46.98
35676;BME280;21790;42.668;23.298;2023-01-10T00:44:49;93869.13;;;11.30;46.92
35676;BME280;21790;42.668;23.298;2023-01-10T00:47:17;93854.41;;;11.18;47.08
35676;BME280;21790;42.668;23.298;2023-01-10T00:49:46;93873.94;;;10.89;47.90
35676;BME280;21790;42.668;23.298;2023-01-10T00:52:14;93883.34;;;10.27;49.40
35676;BME280;21790;42.668;23.298;2023-01-10T00:54:40;93889.63;;;9.98;50.04
35676;BME280;21790;42.668;23.298;2023-01-10T00:57:07;93882.44;;;10.51;49.14
35676;BME280;21790;42.668;23.298;2023-01-10T00:59:33;93881.28;;;10.07;49.83
35676;BME280;21790;42.668;23.298;2023-01-10T01:01:59;93880.41;;;10.31;49.34
35676;BME280;21790;42.668;23.298;2023-01-10T01:04:24;93870.44;;;10.54;48.59
35676;BME280;21790;42.668;23.298;2023-01-10T01:09:26;93874.00;;;10.95;47.57
35676;BME280;21790;42.668;23.298;2023-01-10T01:12:03;93895.50;;;10.50;48.90
35676;BME280;21790;42.668;23.298;2023-01-10T01:14:28;93858.84;;;10.70;48.33
35676;BME280;21790;42.668;23.298;2023-01-10T01:16:57;93852.91;;;10.77;48.01
35676;BME280;21790;42.668;23.298;2023-01-10T01:19:23;93870.09;;;10.66;48.50
35676;BME280;21790;42.668;23.298;2023-01-10T01:21:48;93869.72;;;10.73;48.27
35676;BME280;21790;42.668;23.298;2023-01-10T01:24:15;93847.66;;;10.99;47.60
35676;BME280;21790;42.668;23.298;2023-01-10T01:29:15;93857.97;;;10.78;48.19
35676;BME280;21790;42.668;23.298;2023-01-10T01:31:44;93904.50;;;10.30;49.59
35676;BME280;21790;42.668;23.298;2023-01-10T01:34:10;93851.16;;;10.59;48.71
35676;BME280;21790;42.668;23.298;2023-01-10T01:36:37;93862.41;;;10.06;49.80
35676;BME280;21790;42.668;23.298;2023-01-10T01:39:03;93827.69;;;10.49;48.59
35676;BME280;21790;42.668;23.298;2023-01-10T01:41:32;93870.00;;;10.40;49.35
35676;BME280;21790;42.668;23.298;2023-01-10T01:44:18;93851.38;;;10.76;48.52
35676;BME280;21790;42.668;23.298;2023-01-10T01:49:30;93837.25;;;10.88;48.04
35676;BME280;21790;42.668;23.298;2023-01-10T01:52:01;93871.25;;;10.74;48.28
35676;BME280;21790;42.668;23.298;2023-01-10T01:54:29;93827.56;;;10.99;47.92
35676;BME280;21790;42.668;23.298;2023-01-10T01:57:16;93855.81;;;11.08;47.42
35676;BME280;21790;42.668;23.298;2023-01-10T01:59:46;93860.78;;;11.04;47.52
35676;BME280;21790;42.668;23.298;2023-01-10T02:02:17;93810.59;;;10.85;47.89
35676;BME280;21790;42.668;23.298;2023-01-10T02:04:52;93819.47;;;10.95;47.79
35676;BME280;21790;42.668;23.298;2023-01-10T02:07:20;93800.84;;;10.90;47.70
35676;BME280;21790;42.668;23.298;2023-01-10T02:10:10;93796.59;;;10.54;48.70
35676;BME280;21790;42.668;23.298;2023-01-10T02:12:38;93820.38;;;10.66;48.25
35676;BME280;21790;42.668;23.298;2023-01-10T02:15:05;93807.00;;;10.79;47.85
35676;BME280;21790;42.668;23.298;2023-01-10T02:17:30;93824.84;;;10.64;48.21
35676;BME280;21790;42.668;23.298;2023-01-10T02:20:05;93811.94;;;10.96;48.07
35676;BME280;21790;42.668;23.298;2023-01-10T02:28:11;93803.41;;;11.19;47.21
35676;BME280;21790;42.668;23.298;2023-01-10T02:36:14;93805.28;;;11.08;47.79
35676;BME280;21790;42.668;23.298;2023-01-10T02:38:55;93809.97;;;11.22;47.74
35676;BME280;21790;42.668;23.298;2023-01-10T02:41:30;93790.03;;;11.12;48.09
35676;BME280;21790;42.668;23.298;2023-01-10T02:44:16;93793.03;;;11.14;47.89
35676;BME280;21790;42.668;23.298;2023-01-10T02:46:43;93794.19;;;10.82;48.53
35676;BME280;21790;42.668;23.298;2023-01-10T02:49:10;93790.78;;;10.93;47.82
35676;BME280;21790;42.668;23.298;2023-01-10T02:51:35;93792.03;;;11.12;47.55
35676;BME280;21790;42.668;23.298;2023-01-10T03:13:15;93811.44;;;10.97;48.64
35676;BME280;21790;42.668;23.298;2023-01-10T03:15:45;93814.38;;;10.88;48.38
35676;BME280;21790;42.668;23.298;2023-01-10T03:18:17;93819.25;;;10.99;48.45
35676;BME280;21790;42.668;23.298;2023-01-10T03:20:46;93806.78;;;11.29;47.56
35676;BME280;21790;42.668;23.298;2023-01-10T03:23:13;93828.09;;;11.23;47.33
35676;BME280;21790;42.668;23.298;2023-01-10T03:25:42;93836.19;;;11.06;48.00
35676;BME280;21790;42.668;23.298;2023-01-10T03:33:06;93823.84;;;11.27;47.23
35676;BME280;21790;42.668;23.298;2023-01-10T03:38:10;93829.75;;;11.15;47.90
35676;BME280;21790;42.668;23.298;2023-01-10T03:41:01;93819.50;;;11.47;46.99
35676;BME280;21790;42.668;23.298;2023-01-10T03:43:44;93810.84;;;11.33;47.19
35676;BME280;21790;42.668;23.298;2023-01-10T03:46:42;93803.78;;;11.32;47.13
35676;BME280;21790;42.668;23.298;2023-01-10T03:49:12;93811.13;;;10.89;48.11
35676;BME280;21790;42.668;23.298;2023-01-10T03:51:39;93806.41;;;10.75;48.10
35676;BME280;21790;42.668;23.298;2023-01-10T03:54:05;93803.25;;;10.82;48.25
35676;BME280;21790;42.668;23.298;2023-01-10T03:56:42;93777.72;;;10.93;48.21
35676;BME280;21790;42.668;23.298;2023-01-10T03:59:09;93777.81;;;10.78;48.58
35676;BME280;21790;42.668;23.298;2023-01-10T04:01:35;93759.94;;;10.74;48.45
35676;BME280;21790;42.668;23.298;2023-01-10T04:04:00;93745.09;;;10.71;48.12
35676;BME280;21790;42.668;23.298;2023-01-10T04:06:26;93739.34;;;10.75;47.94
35676;BME280;21790;42.668;23.298;2023-01-10T04:08:51;93721.97;;;10.95;47.54
35676;BME280;21790;42.668;23.298;2023-01-10T04:11:17;93737.53;;;11.18;47.06
35676;BME280;21790;42.668;23.298;2023-01-10T04:13:42;93733.88;;;11.32;46.78
35676;BME280;21790;42.668;23.298;2023-01-10T04:16:08;93729.31;;;11.23;46.88
35676;BME280;21790;42.668;23.298;2023-01-10T04:18:33;93728.59;;;11.28;46.77
35676;BME280;21790;42.668;23.298;2023-01-10T04:21:09;93724.16;;;11.42;46.54
35676;BME280;21790;42.668;23.298;2023-01-10T04:23:35;93739.53;;;11.17;46.84
35676;BME280;21790;42.668;23.298;2023-01-10T04:26:00;93757.69;;;11.24;46.67
35676;BME280;21790;42.668;23.298;2023-01-10T04:28:26;93778.97;;;11.12;47.21
35676;BME280;21790;42.668;23.298;2023-01-10T04:30:51;93778.63;;;11.30;46.68
35676;BME280;21790;42.668;23.298;2023-01-10T04:33:17;93789.16;;;12.15;50.45
35676;BME280;21790;42.668;23.298;2023-01-10T04:35:47;93804.66;;;12.81;45.25
35676;BME280;21790;42.668;23.298;2023-01-10T04:38:13;93832.34;;;12.33;45.06
35676;BME280;21790;42.668;23.298;2023-01-10T04:43:15;93794.00;;;11.89;47.34
35676;BME280;21790;42.668;23.298;2023-01-10T04:45:42;93800.44;;;11.74;46.03
35676;BME280;21790;42.668;23.298;2023-01-10T04:48:07;93795.38;;;12.04;45.36
35676;BME280;21790;42.668;23.298;2023-01-10T04:50:33;93778.09;;;12.15;44.67
35676;BME280;21790;42.668;23.298;2023-01-10T04:52:58;93775.53;;;12.11;44.89
35676;BME280;21790;42.668;23.298;2023-01-10T04:55:23;93796.19;;;11.79;45.37
35676;BME280;21790;42.668;23.298;2023-01-10T04:57:49;93810.19;;;11.70;46.03
35676;BME280;21790;42.668;23.298;2023-01-10T05:00:17;93789.28;;;11.69;45.86
35676;BME280;21790;42.668;23.298;2023-01-10T05:02:42;93793.47;;;11.85;45.51
35676;BME280;21790;42.668;23.298;2023-01-10T05:05:12;93777.69;;;11.65;46.15
35676;BME280;21790;42.668;23.298;2023-01-10T05:07:39;93799.50;;;11.31;46.59
35676;BME280;21790;42.668;23.298;2023-01-10T05:10:05;93779.19;;;10.88;47.91
35676;BME280;21790;42.668;23.298;2023-01-10T05:12:31;93774.06;;;11.27;47.01
35676;BME280;21790;42.668;23.298;2023-01-10T05:14:57;93774.50;;;11.20;47.22
35676;BME280;21790;42.668;23.298;2023-01-10T05:17:22;93750.81;;;11.40;46.51
35676;BME280;21790;42.668;23.298;2023-01-10T05:19:48;93742.53;;;11.40;46.22
35676;BME280;21790;42.668;23.298;2023-01-10T05:22:13;93745.00;;;11.38;46.44
35676;BME280;21790;42.668;23.298;2023-01-10T05:24:39;93747.47;;;11.61;46.04
35676;BME280;21790;42.668;23.298;2023-01-10T05:27:05;93751.53;;;11.66;45.80
35676;BME280;21790;42.668;23.298;2023-01-10T05:29:31;93748.31;;;11.73;45.75
35676;BME280;21790;42.668;23.298;2023-01-10T05:31:57;93753.94;;;11.84;45.54
35676;BME280;21790;42.668;23.298;2023-01-10T05:34:23;93759.41;;;11.73;45.38
35676;BME280;21790;42.668;23.298;2023-01-10T05:36:49;93766.09;;;11.61;45.58
35676;BME280;21790;42.668;23.298;2023-01-10T05:39:14;93777.66;;;11.33;46.70
35676;BME280;21790;42.668;23.298;2023-01-10T05:41:39;93785.28;;;11.18;46.95
35676;BME280;21790;42.668;23.298;2023-01-10T05:44:05;93804.16;;;11.20;46.85
35676;BME280;21790;42.668;23.298;2023-01-10T05:46:32;93787.00;;;10.90;47.55
35676;BME280;21790;42.668;23.298;2023-01-10T05:48:57;93779.50;;;11.16;47.06
35676;BME280;21790;42.668;23.298;2023-01-10T05:51:23;93782.44;;;11.33;46.64
35676;BME280;21790;42.668;23.298;2023-01-10T05:53:48;93778.03;;;11.47;46.30
35676;BME280;21790;42.668;23.298;2023-01-10T05:56:14;93755.69;;;11.50;46.25
35676;BME280;21790;42.668;23.298;2023-01-10T05:58:39;93771.78;;;11.26;46.92
35676;BME280;21790;42.668;23.298;2023-01-10T06:01:05;93784.09;;;10.99;47.42
35676;BME280;21790;42.668;23.298;2023-01-10T06:03:30;93786.66;;;10.82;48.04
35676;BME280;21790;42.668;23.298;2023-01-10T06:05:56;93779.91;;;10.83;48.00
35676;BME280;21790;42.668;23.298;2023-01-10T06:08:22;93773.97;;;11.16;47.25
35676;BME280;21790;42.668;23.298;2023-01-10T06:10:47;93776.56;;;11.25;47.08
35676;BME280;21790;42.668;23.298;2023-01-10T06:13:13;93783.84;;;11.49;46.31
35676;BME280;21790;42.668;23.298;2023-01-10T06:15:39;93782.19;;;11.62;46.05
35676;BME280;21790;42.668;23.298;2023-01-10T06:18:05;93782.72;;;11.66;46.11
35676;BME280;21790;42.668;23.298;2023-01-10T06:20:31;93771.06;;;11.57;46.09
35676;BME280;21790;42.668;23.298;2023-01-10T06:22:58;93768.50;;;11.22;46.95
35676;BME280;21790;42.668;23.298;2023-01-10T06:25:26;93791.22;;;11.31;47.02
35676;BME280;21790;42.668;23.298;2023-01-10T06:27:53;93789.38;;;11.49;46.60
35676;BME280;21790;42.668;23.298;2023-01-10T06:30:18;93782.22;;;11.68;46.26
35676;BME280;21790;42.668;23.298;2023-01-10T06:32:44;93777.09;;;11.81;46.00
35676;BME280;21790;42.668;23.298;2023-01-10T06:35:09;93772.13;;;11.91;45.80
35676;BME280;21790;42.668;23.298;2023-01-10T06:37:35;93777.63;;;11.85;45.89
35676;BME280;21790;42.668;23.298;2023-01-10T06:40:02;93775.31;;;11.52;46.71
35676;BME280;21790;42.668;23.298;2023-01-10T06:42:28;93778.13;;;11.58;46.64
35676;BME280;21790;42.668;23.298;2023-01-10T06:44:53;93781.41;;;11.62;46.90
35676;BME280;21790;42.668;23.298;2023-01-10T06:47:19;93781.25;;;11.71;47.17
35676;BME280;21790;42.668;23.298;2023-01-10T06:49:45;93784.31;;;11.73;47.87
35676;BME280;21790;42.668;23.298;2023-01-10T06:52:11;93780.19;;;11.89;46.83
35676;BME280;21790;42.668;23.298;2023-01-10T06:54:36;93786.75;;;11.14;48.42
35676;BME280;21790;42.668;23.298;2023-01-10T06:57:02;93783.97;;;11.34;48.27
35676;BME280;21790;42.668;23.298;2023-01-10T06:59:28;93777.47;;;11.43;48.00
35676;BME280;21790;42.668;23.298;2023-01-10T07:01:54;93774.91;;;11.65;47.90
35676;BME280;21790;42.668;23.298;2023-01-10T07:04:19;93764.28;;;11.84;47.27
35676;BME280;21790;42.668;23.298;2023-01-10T07:06:45;93763.25;;;11.81;47.33
35676;BME280;21790;42.668;23.298;2023-01-10T07:09:10;93751.38;;;11.75;47.35
35676;BME280;21790;42.668;23.298;2023-01-10T07:11:36;93755.66;;;11.76;47.70
35676;BME280;21790;42.668;23.298;2023-01-10T07:14:01;93749.50;;;11.92;47.33
35676;BME280;21790;42.668;23.298;2023-01-10T07:16:27;93741.31;;;12.14;47.04
35676;BME280;21790;42.668;23.298;2023-01-10T07:18:52;93736.25;;;12.07;47.29
35676;BME280;21790;42.668;23.298;2023-01-10T07:21:18;93740.94;;;11.96;47.71
35676;BME280;21790;42.668;23.298;2023-01-10T07:23:48;93747.72;;;11.95;48.12
35676;BME280;21790;42.668;23.298;2023-01-10T07:26:17;93738.66;;;11.89;48.38
35676;BME280;21790;42.668;23.298;2023-01-10T07:28:48;93734.44;;;11.99;49.43
35676;BME280;21790;42.668;23.298;2023-01-10T07:31:19;93736.94;;;11.97;49.64
35676;BME280;21790;42.668;23.298;2023-01-10T07:33:49;93731.59;;;11.88;49.93
35676;BME280;21790;42.668;23.298;2023-01-10T07:36:14;93733.16;;;11.68;50.15
35676;BME280;21790;42.668;23.298;2023-01-10T07:38:40;93725.91;;;11.71;49.84
35676;BME280;21790;42.668;23.298;2023-01-10T07:41:06;93725.44;;;11.72;50.52
35676;BME280;21790;42.668;23.298;2023-01-10T07:43:32;93722.50;;;11.82;50.05
35676;BME280;21790;42.668;23.298;2023-01-10T07:46:01;93723.25;;;11.82;50.75
35676;BME280;21790;42.668;23.298;2023-01-10T07:48:28;93712.44;;;11.84;50.65
35676;BME280;21790;42.668;23.298;2023-01-10T07:50:55;93721.34;;;11.99;50.50
35676;BME280;21790;42.668;23.298;2023-01-10T07:53:21;93721.44;;;11.79;51.15
35676;BME280;21790;42.668;23.298;2023-01-10T07:55:47;93728.78;;;11.82;51.55
35676;BME280;21790;42.668;23.298;2023-01-10T07:58:12;93729.50;;;11.77;51.76
35676;BME280;21790;42.668;23.298;2023-01-10T08:00:38;93731.16;;;11.69;52.14
35676;BME280;21790;42.668;23.298;2023-01-10T08:03:04;93733.94;;;11.38;52.95
35676;BME280;21790;42.668;23.298;2023-01-10T08:05:31;93732.03;;;11.49;52.82
35676;BME280;21790;42.668;23.298;2023-01-10T08:07:56;93733.03;;;11.52;52.75
35676;BME280;21790;42.668;23.298;2023-01-10T08:10:25;93725.09;;;11.33;53.30
35676;BME280;21790;42.668;23.298;2023-01-10T08:12:51;93729.56;;;11.25;53.23
35676;BME280;21790;42.668;23.298;2023-01-10T08:15:16;93733.41;;;11.33;53.18
35676;BME280;21790;42.668;23.298;2023-01-10T08:17:42;93730.22;;;11.46;52.77
35676;BME280;21790;42.668;23.298;2023-01-10T08:20:09;93726.31;;;11.58;52.67
35676;BME280;21790;42.668;23.298;2023-01-10T08:22:35;93724.34;;;11.64;52.58
35676;BME280;21790;42.668;23.298;2023-01-10T08:25:00;93720.28;;;11.60;52.64
35676;BME280;21790;42.668;23.298;2023-01-10T08:27:26;93701.22;;;11.67;52.60
35676;BME280;21790;42.668;23.298;2023-01-10T08:29:51;93700.16;;;11.59;53.21
35676;BME280;21790;42.668;23.298;2023-01-10T08:32:17;93691.88;;;11.28;53.63
35676;BME280;21790;42.668;23.298;2023-01-10T08:34:43;93696.66;;;11.27;53.88
35676;BME280;21790;42.668;23.298;2023-01-10T08:37:12;93689.53;;;11.52;53.65
35676;BME280;21790;42.668;23.298;2023-01-10T08:39:38;93686.56;;;11.56;53.68
35676;BME280;21790;42.668;23.298;2023-01-10T08:42:04;93688.97;;;11.43;54.25
35676;BME280;21790;42.668;23.298;2023-01-10T08:44:29;93692.78;;;11.45;53.68
35676;BME280;21790;42.668;23.298;2023-01-10T08:46:55;93687.78;;;11.49;53.52
35676;BME280;21790;42.668;23.298;2023-01-10T08:49:21;93683.19;;;11.46;53.64
35676;BME280;21790;42.668;23.298;2023-01-10T08:51:47;93676.38;;;11.42;53.65
35676;BME280;21790;42.668;23.298;2023-01-10T08:54:12;93683.78;;;11.56;53.49
35676;BME280;21790;42.668;23.298;2023-01-10T08:56:39;93688.94;;;11.37;53.90
35676;BME280;21790;42.668;23.298;2023-01-10T08:59:08;93689.25;;;11.19;54.14
35676;BME280;21790;42.668;23.298;2023-01-10T09:01:33;93681.09;;;11.36;53.63
35676;BME280;21790;42.668;23.298;2023-01-10T09:03:59;93678.38;;;11.41;53.64
35676;BME280;21790;42.668;23.298;2023-01-10T09:06:24;93670.13;;;11.47;53.22
35676;BME280;21790;42.668;23.298;2023-01-10T09:08:51;93667.03;;;11.33;53.89
35676;BME280;21790;42.668;23.298;2023-01-10T09:11:17;93666.28;;;11.33;53.90
35676;BME280;21790;42.668;23.298;2023-01-10T09:13:42;93665.06;;;11.40;53.81
35676;BME280;21790;42.668;23.298;2023-01-10T09:16:08;93672.19;;;11.52;53.39
35676;BME280;21790;42.668;23.298;2023-01-10T09:18:33;93673.00;;;11.63;53.24
35676;BME280;21790;42.668;23.298;2023-01-10T09:20:59;93661.69;;;11.61;53.32
35676;BME280;21790;42.668;23.298;2023-01-10T09:23:26;93656.19;;;11.67;53.13
35676;BME280;21790;42.668;23.298;2023-01-10T09:25:53;93666.72;;;11.63;53.56
35676;BME280;21790;42.668;23.298;2023-01-10T09:28:21;93671.38;;;11.77;53.23
35676;BME280;21790;42.668;23.298;2023-01-10T09:30:49;93658.94;;;11.61;52.94
35676;BME280;21790;42.668;23.298;2023-01-10T09:33:15;93655.53;;;11.46;53.34
35676;BME280;21790;42.668;23.298;2023-01-10T09:35:41;93662.19;;;11.60;53.22
35676;BME280;21790;42.668;23.298;2023-01-10T09:38:12;93648.97;;;11.75;52.71
35676;BME280;21790;42.668;23.298;2023-01-10T09:41:05;93643.22;;;11.84;52.54
35676;BME280;21790;42.668;23.298;2023-01-10T09:51:37;93624.69;;;12.01;52.19
35676;BME280;21790;42.668;23.298;2023-01-10T09:54:12;93627.19;;;11.94;52.59
35676;BME280;21790;42.668;23.298;2023-01-10T09:56:38;93636.38;;;11.74;52.83
35676;BME280;21790;42.668;23.298;2023-01-10T09:59:05;93620.03;;;11.76;52.84
35676;BME280;21790;42.668;23.298;2023-01-10T10:01:35;93620.94;;;11.62;53.24
35676;BME280;21790;42.668;23.298;2023-01-10T10:06:50;93606.47;;;11.78;53.10
35676;BME280;21790;42.668;23.298;2023-01-10T10:09:20;93598.22;;;11.84;52.92
35676;BME280;21790;42.668;23.298;2023-01-10T10:14:43;93614.88;;;12.00;52.67
35676;BME280;21790;42.668;23.298;2023-01-10T10:33:33;93591.22;;;11.94;52.67
35676;BME280;21790;42.668;23.298;2023-01-10T10:36:11;93582.91;;;11.94;53.03
35676;BME280;21790;42.668;23.298;2023-01-10T10:38:44;93587.75;;;12.10;52.72
35676;BME280;21790;42.668;23.298;2023-01-10T10:41:31;93583.16;;;12.01;52.92
35676;BME280;21790;42.668;23.298;2023-01-10T10:43:58;93587.13;;;11.78;53.83
35676;BME280;21790;42.668;23.298;2023-01-10T10:46:29;93573.53;;;11.86;53.33
35676;BME280;21790;42.668;23.298;2023-01-10T10:52:24;93565.78;;;12.01;53.34
35676;BME280;21790;42.668;23.298;2023-01-10T10:54:52;93569.75;;;11.78;53.99
35676;BME280;21790;42.668;23.298;2023-01-10T10:57:20;93566.66;;;11.70;54.05
35676;BME280;21790;42.668;23.298;2023-01-10T10:59:47;93578.00;;;11.72;54.13
35676;BME280;21790;42.668;23.298;2023-01-10T11:02:23;93579.06;;;11.86;53.80
35676;BME280;21790;42.668;23.298;2023-01-10T11:04:52;93582.09;;;11.82;53.97
35676;BME280;21790;42.668;23.298;2023-01-10T11:07:19;93575.50;;;11.74;54.30
35676;BME280;21790;42.668;23.298;2023-01-10T11:09:46;93568.00;;;11.86;54.07
35676;BME280;21790;42.668;23.298;2023-01-10T11:12:17;93559.22;;;11.87;54.16
35676;BME280;21790;42.668;23.298;2023-01-10T11:14:50;93553.22;;;11.94;53.92
35676;BME280;21790;42.668;23.298;2023-01-10T11:17:25;93547.69;;;12.11;53.49
35676;BME280;21790;42.668;23.298;2023-01-10T11:19:58;93537.63;;;12.02;53.62
35676;BME280;21790;42.668;23.298;2023-01-10T11:22:24;93549.75;;;12.10;53.23
35676;BME280;21790;42.668;23.298;2023-01-10T11:24:54;93540.91;;;12.12;53.25
35676;BME280;21790;42.668;23.298;2023-01-10T11:27:29;93545.66;;;12.00;53.81
35676;BME280;21790;42.668;23.298;2023-01-10T11:30:01;93551.53;;;12.25;53.06
35676;BME280;21790;42.668;23.298;2023-01-10T11:35:25;93543.22;;;12.25;53.37
35676;BME280;21790;42.668;23.298;2023-01-10T11:38:03;93546.78;;;12.36;52.96
35676;BME280;21790;42.668;23.298;2023-01-10T11:40:30;93538.88;;;12.07;53.53
35676;BME280;21790;42.668;23.298;2023-01-10T11:42:57;93543.41;;;11.99;53.69
35676;BME280;21790;42.668;23.298;2023-01-10T11:45:26;93542.88;;;11.95;54.21
35676;BME280;21790;42.668;23.298;2023-01-10T11:48:19;93533.38;;;12.24;53.27
35676;BME280;21790;42.668;23.298;2023-01-10T11:50:51;93538.91;;;12.18;53.67
35676;BME280;21790;42.668;23.298;2023-01-10T11:53:39;93535.94;;;12.27;53.34
35676;BME280;21790;42.668;23.298;2023-01-10T11:56:09;93542.19;;;12.16;53.63
35676;BME280;21790;42.668;23.298;2023-01-10T11:58:36;93541.66;;;12.12;53.25
35676;BME280;21790;42.668;23.298;2023-01-10T12:01:02;93545.66;;;12.00;53.53
35676;BME280;21790;42.668;23.298;2023-01-10T12:03:34;93536.88;;;12.07;53.65
35676;BME280;21790;42.668;23.298;2023-01-10T12:06:05;93531.56;;;11.93;54.24
35676;BME280;21790;42.668;23.298;2023-01-10T12:08:37;93535.84;;;11.99;53.85
35676;BME280;21790;42.668;23.298;2023-01-10T12:11:22;93543.63;;;11.95;54.19
35676;BME280;21790;42.668;23.298;2023-01-10T12:13:53;93531.28;;;11.91;54.22
35676;BME280;21790;42.668;23.298;2023-01-10T12:16:33;93530.63;;;12.24;53.71
35676;BME280;21790;42.668;23.298;2023-01-10T12:19:01;93545.44;;;12.09;53.89
35676;BME280;21790;42.668;23.298;2023-01-10T12:21:41;93532.41;;;12.32;53.17
35676;BME280;21790;42.668;23.298;2023-01-10T12:24:21;93543.72;;;12.23;53.66
35676;BME280;21790;42.668;23.298;2023-01-10T12:26:47;93551.97;;;12.12;53.89
35676;BME280;21790;42.668;23.298;2023-01-10T12:29:20;93548.47;;;12.17;54.00
35676;BME280;21790;42.668;23.298;2023-01-10T12:31:47;93544.72;;;12.14;53.74
35676;BME280;21790;42.668;23.298;2023-01-10T12:34:20;93556.28;;;12.13;53.97
35676;BME280;21790;42.668;23.298;2023-01-10T12:39:35;93538.91;;;12.12;54.25
35676;BME280;21790;42.668;23.298;2023-01-10T12:42:09;93524.31;;;12.18;54.31
35676;BME280;21790;42.668;23.298;2023-01-10T12:45:05;93522.06;;;12.22;54.27
35676;BME280;21790;42.668;23.298;2023-01-10T12:48:12;93512.75;;;12.19;54.14
35676;BME280;21790;42.668;23.298;2023-01-10T12:50:48;93527.06;;;12.18;54.40
35676;BME280;21790;42.668;23.298;2023-01-10T12:53:34;93535.19;;;12.27;54.14
35676;BME280;21790;42.668;23.298;2023-01-10T12:56:03;93547.69;;;12.11;54.54
35676;BME280;21790;42.668;23.298;2023-01-10T12:58:42;93543.69;;;12.18;54.42
35676;BME280;21790;42.668;23.298;2023-01-10T13:01:21;93539.19;;;12.26;54.36
35676;BME280;21790;42.668;23.298;2023-01-10T13:03:58;93544.72;;;12.14;54.35
35676;BME280;21790;42.668;23.298;2023-01-10T13:06:31;93548.19;;;11.98;55.24
35676;BME280;21790;42.668;23.298;2023-01-10T13:08:58;93550.47;;;12.05;54.80
35676;BME280;21790;42.668;23.298;2023-01-10T13:11:29;93553.50;;;12.13;54.92
35676;BME280;21790;42.668;23.298;2023-01-10T13:14:01;93546.94;;;11.99;54.73
35676;BME280;21790;42.668;23.298;2023-01-10T13:16:47;93545.19;;;12.07;54.84
35676;BME280;21790;42.668;23.298;2023-01-10T13:21:44;93553.97;;;12.00;54.92
35676;BME280;21790;42.668;23.298;2023-01-10T13:26:54;93559.38;;;12.43;54.35
35676;BME280;21790;42.668;23.298;2023-01-10T13:29:41;93561.09;;;12.24;55.13
35676;BME280;21790;42.668;23.298;2023-01-10T13:32:26;93544.78;;;12.48;54.28
35676;BME280;21790;42.668;23.298;2023-01-10T13:34:54;93547.78;;;12.44;54.46
35676;BME280;21790;42.668;23.298;2023-01-10T13:37:36;93558.88;;;12.44;54.47
35676;BME280;21790;42.668;23.298;2023-01-10T13:40:03;93566.94;;;12.48;53.87
35676;BME280;21790;42.668;23.298;2023-01-10T13:42:34;93552.59;;;12.61;53.79
35676;BME280;21790;42.668;23.298;2023-01-10T13:45:21;93554.06;;;12.45;54.18
35676;BME280;21790;42.668;23.298;2023-01-10T14:00:50;93560.16;;;12.49;54.43
35676;BME280;21790;42.668;23.298;2023-01-10T14:08:54;93560.63;;;12.36;54.62
35676;BME280;21790;42.668;23.298;2023-01-10T14:11:23;93567.16;;;12.33;54.75
35676;BME280;21790;42.668;23.298;2023-01-10T14:13:55;93558.34;;;12.40;54.56
35676;BME280;21790;42.668;23.298;2023-01-10T14:16:47;93550.81;;;12.41;54.40
35676;BME280;21790;42.668;23.298;2023-01-10T14:19:29;93555.59;;;12.40;54.83
35676;BME280;21790;42.668;23.298;2023-01-10T14:21:58;93557.06;;;12.25;54.91
35676;BME280;21790;42.668;23.298;2023-01-10T14:24:39;93563.91;;;12.46;54.35
35676;BME280;21790;42.668;23.298;2023-01-10T14:27:10;93575.44;;;12.22;54.77
35676;BME280;21790;42.668;23.298;2023-01-10T14:29:37;93584.50;;;12.28;54.51
35676;BME280;21790;42.668;23.298;2023-01-10T14:32:05;93575.97;;;12.32;54.54
35676;BME280;21790;42.668;23.298;2023-01-10T14:34:41;93571.63;;;12.08;55.05
35676;BME280;21790;42.668;23.298;2023-01-10T14:37:25;93565.88;;;12.29;54.46
35676;BME280;21790;42.668;23.298;2023-01-10T14:39:52;93573.41;;;12.23;54.12
35676;BME280;21790;42.668;23.298;2023-01-10T14:42:20;93574.94;;;12.29;53.99
35676;BME280;21790;42.668;23.298;2023-01-10T14:45:00;93570.69;;;12.34;53.37
35676;BME280;21790;42.668;23.298;2023-01-10T14:47:34;93572.94;;;12.30;53.64
35676;BME280;21790;42.668;23.298;2023-01-10T14:50:02;93591.03;;;12.20;53.83
35676;BME280;21790;42.668;23.298;2023-01-10T14:52:31;93582.22;;;12.10;53.93
35676;BME280;21790;42.668;23.298;2023-01-10T14:55:14;93596.84;;;12.22;53.69
35676;BME280;21790;42.668;23.298;2023-01-10T14:58:00;93604.91;;;12.25;53.39